createdAt,value
2023-08-03T00:00:14.720Z,1157.00
2023-08-03T00:01:14.799Z,1126.00
2023-08-03T00:02:14.841Z,1099.00
2023-08-03T00:03:15.032Z,1081.00
2023-08-03T00:04:15.002Z,1064.00
2023-08-03T00:05:14.975Z,1022.00
2023-08-03T00:06:15.046Z,1013.00
2023-08-03T00:07:15.099Z,1044.00
2023-08-03T00:08:15.125Z,1074.00
2023-08-03T00:09:15.174Z,1130.00
2023-08-03T00:10:15.245Z,1169.00
2023-08-03T00:11:15.329Z,1177.00
2023-08-03T00:12:15.355Z,1203.00
2023-08-03T00:13:15.429Z,1210.00
2023-08-03T00:14:15.497Z,1224.00
2023-08-03T00:15:15.549Z,1223.00
2023-08-03T00:16:15.630Z,1226.00
2023-08-03T00:17:15.646Z,1222.00
2023-08-03T00:18:15.737Z,1234.00
2023-08-03T00:19:15.769Z,1236.00
2023-08-03T00:20:15.821Z,1243.00
2023-08-03T00:21:15.911Z,1228.00
2023-08-03T00:22:15.949Z,1216.00
2023-08-03T00:23:16.028Z,1212.00
2023-08-03T00:24:16.083Z,1190.00
2023-08-03T00:25:16.128Z,1194.00
2023-08-03T00:26:16.224Z,1188.00
2023-08-03T00:27:16.284Z,1200.00
2023-08-03T00:28:16.325Z,1151.00
2023-08-03T00:29:16.407Z,1095.00
2023-08-03T00:30:16.438Z,1055.00
2023-08-03T00:31:16.553Z,1019.00
2023-08-03T00:32:16.595Z,999.00
2023-08-03T00:33:16.631Z,996.00
2023-08-03T00:34:16.688Z,1008.00
2023-08-03T00:35:16.753Z,1000.00
2023-08-03T00:36:16.832Z,984.00
2023-08-03T00:37:16.941Z,1015.00
2023-08-03T00:38:16.933Z,1075.00
2023-08-03T00:39:17.011Z,1119.00
2023-08-03T00:40:17.061Z,1186.00
2023-08-03T00:41:17.138Z,1208.00
2023-08-03T00:42:17.179Z,1255.00
2023-08-03T00:43:17.248Z,1316.00
2023-08-03T00:44:17.341Z,1343.00
2023-08-03T00:45:17.372Z,1366.00
2023-08-03T00:46:17.464Z,1404.00
2023-08-03T00:47:17.501Z,1432.00
2023-08-03T00:48:17.577Z,1469.00
2023-08-03T00:49:17.609Z,1489.00
2023-08-03T00:50:17.674Z,1504.00
2023-08-03T00:51:17.742Z,1498.00
2023-08-03T00:52:17.808Z,1419.00
2023-08-03T00:53:17.876Z,1358.00
2023-08-03T00:54:17.969Z,1313.00
2023-08-03T00:55:17.963Z,1322.00
2023-08-03T00:56:18.046Z,1307.00
2023-08-03T00:57:18.091Z,1286.00
2023-08-03T00:58:18.157Z,1306.00
2023-08-03T00:59:18.235Z,1316.00
2023-08-03T01:00:18.315Z,1314.00
2023-08-03T01:01:18.376Z,1322.00
2023-08-03T01:02:18.481Z,1346.00
2023-08-03T01:03:18.582Z,1368.00
2023-08-03T01:04:18.564Z,1391.00
2023-08-03T01:05:18.565Z,1396.00
2023-08-03T01:06:18.721Z,1380.00
2023-08-03T01:07:18.707Z,1401.00
2023-08-03T01:08:18.778Z,1449.00
2023-08-03T01:09:18.848Z,1461.00
2023-08-03T01:10:18.952Z,1497.00
2023-08-03T01:11:19.016Z,1524.00
2023-08-03T01:12:19.036Z,1544.00
2023-08-03T01:13:19.063Z,1562.00
2023-08-03T01:14:19.125Z,1576.00
2023-08-03T01:15:19.164Z,1594.00
2023-08-03T01:16:19.258Z,1600.00
2023-08-03T01:17:19.257Z,1600.00
2023-08-03T01:18:19.321Z,1609.00
2023-08-03T01:19:19.393Z,1608.00
2023-08-03T01:20:19.431Z,1598.00
2023-08-03T01:21:19.527Z,1596.00
2023-08-03T01:22:19.569Z,1621.00
2023-08-03T01:23:19.608Z,1604.00
2023-08-03T01:24:19.676Z,1624.00
2023-08-03T01:25:19.732Z,1628.00
2023-08-03T01:26:19.844Z,1620.00
2023-08-03T01:27:19.878Z,1631.00
2023-08-03T01:28:19.906Z,1622.00
2023-08-03T01:29:20.016Z,1634.00
2023-08-03T01:30:20.048Z,1648.00
2023-08-03T01:31:20.252Z,1651.00
2023-08-03T01:32:20.186Z,1666.00
2023-08-03T01:33:20.288Z,1660.00
2023-08-03T01:34:20.272Z,1661.00
2023-08-03T01:35:20.321Z,1655.00
2023-08-03T01:36:20.419Z,1651.00
2023-08-03T01:37:20.447Z,1624.00
2023-08-03T01:38:20.512Z,1624.00
2023-08-03T01:39:20.575Z,1624.00
2023-08-03T01:40:20.640Z,1613.00
2023-08-03T01:41:20.714Z,1604.00
2023-08-03T01:42:20.783Z,1602.00
2023-08-03T01:43:20.814Z,1590.00
2023-08-03T01:44:20.875Z,1614.00
2023-08-03T01:45:20.923Z,1626.00
2023-08-03T01:46:21.019Z,1617.00
2023-08-03T01:47:21.080Z,1623.00
2023-08-03T01:48:21.118Z,1618.00
2023-08-03T01:49:21.178Z,1619.00
2023-08-03T01:50:21.244Z,1626.00
2023-08-03T01:51:21.314Z,1629.00
2023-08-03T01:52:21.388Z,1656.00
2023-08-03T01:53:21.449Z,1679.00
2023-08-03T01:54:21.475Z,1698.00
2023-08-03T01:55:21.550Z,1715.00
2023-08-03T01:56:21.570Z,1727.00
2023-08-03T01:57:21.634Z,1742.00
2023-08-03T01:58:21.595Z,1765.00
2023-08-03T01:59:21.636Z,1772.00
2023-08-03T02:00:21.675Z,1762.00
2023-08-03T02:01:21.758Z,1762.00
2023-08-03T02:02:21.728Z,1770.00
2023-08-03T02:03:21.725Z,1780.00
2023-08-03T02:04:21.774Z,1795.00
2023-08-03T02:05:21.778Z,1813.00
2023-08-03T02:06:21.815Z,1820.00
2023-08-03T02:07:21.818Z,1833.00
2023-08-03T02:08:21.842Z,1828.00
2023-08-03T02:09:21.864Z,1826.00
2023-08-03T02:10:21.910Z,1829.00
2023-08-03T02:11:21.957Z,1834.00
2023-08-03T02:12:22.175Z,1833.00
2023-08-03T02:13:22.085Z,1842.00
2023-08-03T02:14:22.149Z,1831.00
2023-08-03T02:15:22.223Z,1850.00
2023-08-03T02:16:25.259Z,1858.00
2023-08-03T02:17:22.304Z,1883.00
2023-08-03T02:18:22.262Z,1870.00
2023-08-03T02:19:22.251Z,1884.00
2023-08-03T02:20:22.265Z,1894.00
2023-08-03T02:21:22.257Z,1887.00
2023-08-03T02:22:22.256Z,1903.00
2023-08-03T02:23:22.226Z,1905.00
2023-08-03T02:24:22.231Z,1917.00
2023-08-03T02:25:22.209Z,1908.00
2023-08-03T02:26:22.230Z,1915.00
2023-08-03T02:27:22.250Z,1925.00
2023-08-03T02:28:22.210Z,1933.00
2023-08-03T02:29:22.234Z,1922.00
2023-08-03T02:30:22.212Z,1929.00
2023-08-03T02:31:22.208Z,1955.00
2023-08-03T02:32:22.206Z,1944.00
2023-08-03T02:33:22.235Z,1944.00
2023-08-03T02:34:22.169Z,1949.00
2023-08-03T02:35:22.182Z,1962.00
2023-08-03T02:36:22.155Z,1966.00
2023-08-03T02:37:22.167Z,1946.00
2023-08-03T02:38:22.135Z,1947.00
2023-08-03T02:39:22.126Z,1949.00
2023-08-03T02:40:22.133Z,1940.00
2023-08-03T02:41:22.117Z,1954.00
2023-08-03T02:42:22.142Z,1946.00
2023-08-03T02:43:22.126Z,1958.00
2023-08-03T02:44:22.107Z,1945.00
2023-08-03T02:45:22.087Z,1957.00
2023-08-03T02:46:22.149Z,1956.00
2023-08-03T02:47:22.193Z,1961.00
2023-08-03T02:48:22.276Z,1955.00
2023-08-03T02:49:22.333Z,1945.00
2023-08-03T02:50:22.400Z,1949.00
2023-08-03T02:51:22.431Z,1951.00
2023-08-03T02:52:22.515Z,1960.00
2023-08-03T02:53:22.582Z,1954.00
2023-08-03T02:54:22.643Z,1963.00
2023-08-03T02:55:22.693Z,1955.00
2023-08-03T02:56:22.745Z,1954.00
2023-08-03T02:57:22.814Z,1956.00
2023-08-03T02:58:22.895Z,1948.00
2023-08-03T02:59:22.952Z,1938.00
2023-08-03T03:00:22.994Z,1940.00
2023-08-03T03:01:23.095Z,1926.00
2023-08-03T03:02:23.243Z,1942.00
2023-08-03T03:03:23.283Z,1950.00
2023-08-03T03:04:23.283Z,1951.00
2023-08-03T03:05:23.320Z,1952.00
2023-08-03T03:06:23.412Z,1960.00
2023-08-03T03:07:23.434Z,1961.00
2023-08-03T03:08:23.487Z,1957.00
2023-08-03T03:09:23.496Z,1952.00
2023-08-03T03:10:23.520Z,1958.00
2023-08-03T03:11:23.561Z,1961.00
2023-08-03T03:12:23.559Z,1977.00
2023-08-03T03:13:23.615Z,1968.00
2023-08-03T03:14:23.657Z,1972.00
2023-08-03T03:15:23.708Z,1964.00
2023-08-03T03:16:23.833Z,1950.00
2023-08-03T03:17:23.906Z,1948.00
2023-08-03T03:18:23.925Z,1966.00
2023-08-03T03:19:23.956Z,1971.00
2023-08-03T03:20:24.043Z,1977.00
2023-08-03T03:21:24.079Z,1979.00
2023-08-03T03:22:24.247Z,1974.00
2023-08-03T03:23:24.178Z,1975.00
2023-08-03T03:24:24.265Z,2001.00
2023-08-03T03:25:24.274Z,1990.00
2023-08-03T03:26:24.328Z,2013.00
2023-08-03T03:27:24.381Z,2010.00
2023-08-03T03:28:24.465Z,2017.00
2023-08-03T03:29:24.492Z,2011.00
2023-08-03T03:30:24.539Z,2027.00
2023-08-03T03:31:24.616Z,2030.00
2023-08-03T03:32:24.730Z,2014.00
2023-08-03T03:33:25.187Z,2020.00
2023-08-03T03:34:24.744Z,2037.00
2023-08-03T03:35:24.790Z,2035.00
2023-08-03T03:36:24.840Z,2043.00
2023-08-03T03:37:24.880Z,2044.00
2023-08-03T03:38:24.935Z,2051.00
2023-08-03T03:39:24.970Z,2054.00
2023-08-03T03:40:24.982Z,2041.00
2023-08-03T03:41:25.003Z,2038.00
2023-08-03T03:42:25.035Z,2024.00
2023-08-03T03:43:25.098Z,2015.00
2023-08-03T03:44:25.134Z,2022.00
2023-08-03T03:45:25.193Z,2029.00
2023-08-03T03:46:25.206Z,2041.00
2023-08-03T03:47:25.266Z,2045.00
2023-08-03T03:48:25.362Z,2059.00
2023-08-03T03:49:25.331Z,2068.00
2023-08-03T03:50:25.411Z,2057.00
2023-08-03T03:51:25.424Z,2068.00
2023-08-03T03:52:25.472Z,2062.00
2023-08-03T03:53:25.537Z,2066.00
2023-08-03T03:54:25.587Z,2082.00
2023-08-03T03:55:26.191Z,2094.00
2023-08-03T03:56:25.644Z,2118.00
2023-08-03T03:57:25.672Z,2118.00
2023-08-03T03:58:25.824Z,2126.00
2023-08-03T03:59:25.787Z,2131.00
2023-08-03T04:00:25.874Z,2111.00
2023-08-03T04:01:25.981Z,2126.00
2023-08-03T04:02:26.015Z,2118.00
2023-08-03T04:03:26.060Z,2117.00
2023-08-03T04:04:26.046Z,2113.00
2023-08-03T04:05:26.107Z,2114.00
2023-08-03T04:06:26.261Z,2106.00
2023-08-03T04:07:26.207Z,2099.00
2023-08-03T04:08:26.280Z,2065.00
2023-08-03T04:09:26.370Z,2033.00
2023-08-03T04:10:26.386Z,1997.00
2023-08-03T04:11:26.443Z,1970.00
2023-08-03T04:12:26.464Z,1928.00
2023-08-03T04:13:26.534Z,1923.00
2023-08-03T04:14:26.595Z,1876.00
2023-08-03T04:15:26.607Z,1855.00
2023-08-03T04:16:26.642Z,1821.00
2023-08-03T04:17:26.659Z,1774.00
2023-08-03T04:18:26.712Z,1765.00
2023-08-03T04:19:26.772Z,1746.00
2023-08-03T04:20:26.861Z,1735.00
2023-08-03T04:21:26.947Z,1708.00
2023-08-03T04:22:27.002Z,1666.00
2023-08-03T04:23:27.028Z,1654.00
2023-08-03T04:24:27.102Z,1663.00
2023-08-03T04:25:27.101Z,1664.00
2023-08-03T04:26:27.170Z,1635.00
2023-08-03T04:27:27.238Z,1620.00
2023-08-03T04:28:27.273Z,1628.00
2023-08-03T04:29:27.349Z,1640.00
2023-08-03T04:30:27.420Z,1624.00
2023-08-03T04:31:27.605Z,1627.00
2023-08-03T04:32:27.650Z,1612.00
2023-08-03T04:33:27.612Z,1600.00
2023-08-03T04:34:27.648Z,1594.00
2023-08-03T04:35:27.695Z,1560.00
2023-08-03T04:36:27.765Z,1561.00
2023-08-03T04:37:27.847Z,1575.00
2023-08-03T04:38:27.865Z,1562.00
2023-08-03T04:39:27.948Z,1549.00
2023-08-03T04:40:27.969Z,1570.00
2023-08-03T04:41:28.046Z,1602.00
2023-08-03T04:42:28.086Z,1573.00
2023-08-03T04:43:28.182Z,1576.00
2023-08-03T04:44:28.221Z,1540.00
2023-08-03T04:45:28.314Z,1518.00
2023-08-03T04:46:28.434Z,1518.00
2023-08-03T04:47:28.413Z,1481.00
2023-08-03T04:48:28.472Z,1508.00
2023-08-03T04:49:28.530Z,1485.00
2023-08-03T04:50:28.596Z,1500.00
2023-08-03T04:51:28.673Z,1491.00
2023-08-03T04:52:28.685Z,1504.00
2023-08-03T04:53:28.731Z,1476.00
2023-08-03T04:54:28.848Z,1465.00
2023-08-03T04:55:28.840Z,1457.00
2023-08-03T04:56:28.877Z,1489.00
2023-08-03T04:57:28.953Z,1471.00
2023-08-03T04:58:28.962Z,1494.00
2023-08-03T04:59:29.041Z,1471.00
2023-08-03T05:00:29.142Z,1483.00
2023-08-03T05:01:29.187Z,1484.00
2023-08-03T05:02:29.244Z,1469.00
2023-08-03T05:03:29.218Z,1476.00
2023-08-03T05:04:29.364Z,1452.00
2023-08-03T05:05:29.332Z,1422.00
2023-08-03T05:06:29.429Z,1394.00
2023-08-03T05:07:29.440Z,1378.00
2023-08-03T05:08:29.461Z,1363.00
2023-08-03T05:09:29.535Z,1384.00
2023-08-03T05:10:29.588Z,1344.00
2023-08-03T05:11:29.665Z,1328.00
2023-08-03T05:12:29.641Z,1332.00
2023-08-03T05:13:29.670Z,1327.00
2023-08-03T05:14:29.734Z,1316.00
2023-08-03T05:15:29.771Z,1310.00
2023-08-03T05:16:29.871Z,1273.00
2023-08-03T05:17:29.929Z,1256.00
2023-08-03T05:18:30.834Z,1269.00
2023-08-03T05:19:29.985Z,1244.00
2023-08-03T05:20:30.050Z,1264.00
2023-08-03T05:21:30.080Z,1265.00
2023-08-03T05:22:30.207Z,1253.00
2023-08-03T05:23:30.142Z,1265.00
2023-08-03T05:24:30.283Z,1229.00
2023-08-03T05:25:30.231Z,1258.00
2023-08-03T05:26:30.304Z,1265.00
2023-08-03T05:27:30.347Z,1261.00
2023-08-03T05:28:30.298Z,1254.00
2023-08-03T05:29:30.351Z,1246.00
2023-08-03T05:30:30.721Z,1253.00
2023-08-03T05:31:30.373Z,1234.00
2023-08-03T05:32:30.395Z,1256.00
2023-08-03T05:33:30.401Z,1256.00
2023-08-03T05:34:30.449Z,1242.00
2023-08-03T05:35:30.432Z,1241.00
2023-08-03T05:36:30.471Z,1260.00
2023-08-03T05:37:30.471Z,1225.00
2023-08-03T05:38:30.472Z,1237.00
2023-08-03T05:39:30.475Z,1225.00
2023-08-03T05:40:30.523Z,1224.00
2023-08-03T05:41:30.545Z,1221.00
2023-08-03T05:42:30.551Z,1222.00
2023-08-03T05:43:30.543Z,1217.00
2023-08-03T05:44:30.584Z,1227.00
2023-08-03T05:45:30.666Z,1224.00
2023-08-03T05:46:30.636Z,1213.00
2023-08-03T05:47:30.639Z,1219.00
2023-08-03T05:48:30.645Z,1226.00
2023-08-03T05:49:30.687Z,1250.00
2023-08-03T05:50:30.738Z,1242.00
2023-08-03T05:51:30.798Z,1228.00
2023-08-03T05:52:30.818Z,1252.00
2023-08-03T05:53:30.872Z,1281.00
2023-08-03T05:54:30.863Z,1290.00
2023-08-03T05:55:30.916Z,1274.00
2023-08-03T05:56:30.949Z,1309.00
2023-08-03T05:57:30.981Z,1303.00
2023-08-03T05:58:30.980Z,1300.00
2023-08-03T05:59:31.011Z,1317.00
2023-08-03T06:00:31.067Z,1291.00
2023-08-03T06:01:31.099Z,1279.00
2023-08-03T06:02:31.151Z,1284.00
2023-08-03T06:03:31.228Z,1274.00
2023-08-03T06:04:31.157Z,1280.00
2023-08-03T06:05:31.183Z,1297.00
2023-08-03T06:06:31.310Z,1292.00
2023-08-03T06:07:31.196Z,1287.00
2023-08-03T06:08:31.205Z,1290.00
2023-08-03T06:09:33.065Z,1296.00
2023-08-03T06:10:31.233Z,1285.00
2023-08-03T06:11:31.247Z,1261.00
2023-08-03T06:12:31.267Z,1269.00
2023-08-03T06:13:31.268Z,1281.00
2023-08-03T06:14:31.276Z,1289.00
2023-08-03T06:15:31.311Z,1292.00
2023-08-03T06:16:31.319Z,1270.00
2023-08-03T06:17:31.377Z,1267.00
2023-08-03T06:18:31.375Z,1241.00
2023-08-03T06:19:31.349Z,1235.00
2023-08-03T06:20:31.400Z,1238.00
2023-08-03T06:21:31.402Z,1217.00
2023-08-03T06:22:31.356Z,1195.00
2023-08-03T06:23:31.430Z,1209.00
2023-08-03T06:24:31.403Z,1182.00
2023-08-03T06:25:31.406Z,1153.00
2023-08-03T06:26:31.477Z,1158.00
2023-08-03T06:27:31.459Z,1162.00
2023-08-03T06:28:31.472Z,1150.00
2023-08-03T06:29:31.450Z,1103.00
2023-08-03T06:30:31.493Z,1100.00
2023-08-03T06:31:31.563Z,1089.00
2023-08-03T06:32:31.605Z,1082.00
2023-08-03T06:33:31.502Z,1057.00
2023-08-03T06:34:31.519Z,1015.00
2023-08-03T06:35:31.543Z,1008.00
2023-08-03T06:36:31.590Z,1012.00
2023-08-03T06:37:31.594Z,971.00
2023-08-03T06:38:31.644Z,950.00
2023-08-03T06:39:31.630Z,954.00
2023-08-03T06:40:31.666Z,951.00
2023-08-03T06:41:31.647Z,928.00
2023-08-03T06:42:31.690Z,913.00
2023-08-03T06:43:31.650Z,933.00
2023-08-03T06:44:31.656Z,949.00
2023-08-03T06:45:31.672Z,948.00
2023-08-03T06:46:31.712Z,953.00
2023-08-03T06:47:31.686Z,938.00
2023-08-03T06:48:31.649Z,921.00
2023-08-03T06:49:31.640Z,912.00
2023-08-03T06:50:32.408Z,921.00
2023-08-03T06:51:31.653Z,912.00
2023-08-03T06:52:31.625Z,893.00
2023-08-03T06:53:31.610Z,922.00
2023-08-03T06:54:31.640Z,965.00
2023-08-03T06:55:31.639Z,987.00
2023-08-03T06:56:31.648Z,1013.00
2023-08-03T06:57:31.647Z,987.00
2023-08-03T06:58:31.665Z,991.00
2023-08-03T06:59:31.707Z,980.00
2023-08-03T07:00:31.650Z,976.00
2023-08-03T07:01:31.820Z,954.00
2023-08-03T07:02:31.678Z,966.00
2023-08-03T07:03:31.826Z,973.00
2023-08-03T07:04:31.635Z,975.00
2023-08-03T07:05:31.644Z,951.00
2023-08-03T07:06:31.671Z,957.00
2023-08-03T07:07:31.639Z,941.00
2023-08-03T07:08:31.617Z,929.00
2023-08-03T07:09:31.615Z,947.00
2023-08-03T07:10:31.640Z,934.00
2023-08-03T07:11:31.624Z,937.00
2023-08-03T07:12:31.608Z,916.00
2023-08-03T07:13:31.620Z,919.00
2023-08-03T07:14:31.609Z,894.00
2023-08-03T07:15:31.598Z,923.00
2023-08-03T07:16:31.698Z,921.00
2023-08-03T07:17:31.713Z,906.00
2023-08-03T07:18:31.652Z,877.00
2023-08-03T07:19:31.666Z,844.00
2023-08-03T07:20:31.647Z,852.00
2023-08-03T07:21:31.787Z,821.00
2023-08-03T07:22:31.602Z,862.00
2023-08-03T07:23:31.640Z,890.00
2023-08-03T07:24:31.601Z,876.00
2023-08-03T07:25:31.612Z,868.00
2023-08-03T07:26:31.640Z,876.00
2023-08-03T07:27:31.595Z,874.00
2023-08-03T07:28:31.601Z,889.00
2023-08-03T07:29:31.591Z,894.00
2023-08-03T07:30:33.133Z,877.00
2023-08-03T07:31:31.727Z,882.00
2023-08-03T07:32:31.661Z,890.00
2023-08-03T07:33:31.610Z,881.00
2023-08-03T07:34:31.613Z,867.00
2023-08-03T07:35:31.591Z,883.00
2023-08-03T07:36:31.617Z,876.00
2023-08-03T07:37:31.581Z,913.00
2023-08-03T07:38:31.561Z,905.00
2023-08-03T07:39:31.558Z,891.00
2023-08-03T07:40:31.638Z,868.00
2023-08-03T07:41:31.593Z,883.00
2023-08-03T07:42:31.574Z,897.00
2023-08-03T07:43:31.573Z,873.00
2023-08-03T07:46:31.566Z,898.00
2023-08-03T07:47:31.586Z,888.00
2023-08-03T07:48:31.540Z,898.00
2023-08-03T07:49:31.534Z,864.00
2023-08-03T07:50:31.515Z,865.00
2023-08-03T07:51:31.540Z,841.00
2023-08-03T07:52:31.514Z,840.00
2023-08-03T07:53:31.522Z,853.00
2023-08-03T07:54:31.489Z,837.00
2023-08-03T07:55:31.542Z,826.00
2023-08-03T07:56:31.493Z,852.00
2023-08-03T07:57:31.494Z,852.00
2023-08-03T07:58:31.454Z,846.00
2023-08-03T07:59:31.456Z,856.00
2023-08-03T08:00:31.472Z,825.00
2023-08-03T08:01:31.599Z,797.00
2023-08-03T08:02:31.472Z,806.00
2023-08-03T08:03:31.489Z,820.00
2023-08-03T08:04:31.473Z,843.00
2023-08-03T08:05:31.418Z,842.00
2023-08-03T08:06:31.453Z,833.00
2023-08-03T08:07:31.422Z,823.00
2023-08-03T08:08:31.402Z,830.00
2023-08-03T08:09:31.444Z,815.00
2023-08-03T08:10:31.405Z,813.00
2023-08-03T08:11:31.483Z,808.00
2023-08-03T08:12:31.393Z,810.00
2023-08-03T08:13:31.403Z,802.00
2023-08-03T08:14:31.352Z,794.00
2023-08-03T08:15:31.449Z,801.00
2023-08-03T08:16:31.449Z,824.00
2023-08-03T08:17:31.366Z,843.00
2023-08-03T08:18:31.349Z,840.00
2023-08-03T08:19:31.347Z,805.00
2023-08-03T08:20:31.336Z,812.00
2023-08-03T08:21:31.357Z,787.00
2023-08-03T08:22:31.914Z,791.00
2023-08-03T08:23:31.317Z,775.00
2023-08-03T08:24:31.363Z,758.00
2023-08-03T08:25:31.400Z,735.00
2023-08-03T08:26:31.342Z,725.00
2023-08-03T08:27:31.489Z,713.00
2023-08-03T08:28:35.318Z,690.00
2023-08-03T08:29:32.261Z,691.00
2023-08-03T08:30:31.332Z,692.00
2023-08-03T08:32:31.349Z,677.00
2023-08-03T08:33:31.311Z,675.00
2023-08-03T08:34:32.556Z,685.00
2023-08-03T08:35:31.240Z,674.00
2023-08-03T08:36:31.281Z,680.00
2023-08-03T08:37:31.368Z,666.00
2023-08-03T08:38:31.203Z,670.00
2023-08-03T08:39:31.252Z,691.00
2023-08-03T08:40:31.217Z,699.00
2023-08-03T08:41:31.185Z,676.00
2023-08-03T08:42:31.203Z,676.00
2023-08-03T08:43:31.182Z,663.00
2023-08-03T08:44:31.164Z,675.00
2023-08-03T08:45:31.161Z,654.00
2023-08-03T08:46:31.236Z,643.00
2023-08-03T08:47:31.265Z,650.00
2023-08-03T08:50:32.416Z,648.00
2023-08-03T08:53:14.606Z,650.00
2023-08-03T08:55:17.577Z,649.00
2023-08-03T08:59:33.498Z,649.00
2023-08-03T09:00:31.298Z,654.00
2023-08-03T09:01:31.355Z,657.00
2023-08-03T09:02:31.444Z,661.00
2023-08-03T09:04:34.190Z,649.00
2023-08-03T09:06:31.487Z,649.00
2023-08-03T09:07:31.465Z,653.00
2023-08-03T09:08:31.445Z,659.00
2023-08-03T09:09:31.421Z,665.00
2023-08-03T09:10:31.406Z,681.00
2023-08-03T09:11:31.518Z,674.00
2023-08-03T09:12:31.472Z,653.00
2023-08-03T09:13:31.445Z,654.00
2023-08-03T09:14:31.437Z,663.00
2023-08-03T09:15:31.378Z,660.00
2023-08-03T09:16:31.462Z,691.00
2023-08-03T09:17:31.540Z,685.00
2023-08-03T09:18:31.429Z,676.00
2023-08-03T09:19:31.351Z,692.00
2023-08-03T09:25:40.772Z,682.00
2023-08-03T09:29:31.345Z,682.00
2023-08-03T09:31:31.341Z,683.00
2023-08-03T09:32:31.341Z,676.00
2023-08-03T09:36:32.626Z,683.00
2023-08-03T09:38:31.296Z,683.00
2023-08-03T09:39:31.743Z,661.00
2023-08-03T09:40:31.246Z,650.00
2023-08-03T09:44:31.235Z,655.00
2023-08-03T09:45:33.690Z,654.00
2023-08-03T09:46:31.364Z,655.00
2023-08-03T09:47:31.450Z,655.00
2023-08-03T09:48:31.469Z,644.00
2023-08-03T09:49:31.426Z,640.00
2023-08-03T09:50:31.583Z,648.00
2023-08-03T09:51:31.462Z,644.00
2023-08-03T09:53:31.558Z,653.00
2023-08-03T09:54:32.219Z,652.00
2023-08-03T09:55:31.507Z,654.00
2023-08-03T09:56:31.549Z,659.00
2023-08-03T09:57:31.494Z,658.00
2023-08-03T09:58:31.455Z,643.00
2023-08-03T09:59:31.507Z,642.00
2023-08-03T10:00:31.589Z,649.00
2023-08-03T10:01:31.462Z,650.00
2023-08-03T10:03:31.538Z,622.00
2023-08-03T10:04:31.436Z,620.00
2023-08-03T10:05:31.425Z,608.00
2023-08-03T10:06:31.462Z,618.00
2023-08-03T10:07:31.420Z,613.00
2023-08-03T10:08:31.445Z,608.00
2023-08-03T10:09:31.432Z,612.00
2023-08-03T10:10:31.406Z,610.00
2023-08-03T10:11:31.398Z,612.00
2023-08-03T10:12:31.413Z,608.00
2023-08-03T10:13:31.379Z,607.00
2023-08-03T10:14:31.372Z,609.00
2023-08-03T10:15:31.436Z,608.00
2023-08-03T10:16:31.366Z,597.00
2023-08-03T10:17:31.355Z,603.00
2023-08-03T10:19:31.395Z,592.00
2023-08-03T10:20:31.427Z,588.00
2023-08-03T10:21:31.425Z,586.00
2023-08-03T10:22:31.352Z,593.00
2023-08-03T10:23:31.347Z,591.00
2023-08-03T10:24:31.370Z,596.00
2023-08-03T10:25:31.334Z,598.00
2023-08-03T10:26:31.307Z,595.00
2023-08-03T10:27:31.343Z,590.00
2023-08-03T10:28:31.298Z,602.00
2023-08-03T10:29:31.315Z,607.00
2023-08-03T10:30:31.346Z,608.00
2023-08-03T10:31:31.313Z,599.00
2023-08-03T10:32:31.300Z,601.00
2023-08-03T10:33:31.300Z,604.00
2023-08-03T10:34:31.270Z,610.00
2023-08-03T10:35:31.272Z,591.00
2023-08-03T10:36:31.414Z,591.00
2023-08-03T10:37:31.261Z,595.00
2023-08-03T10:38:31.253Z,594.00
2023-08-03T10:39:31.292Z,596.00
2023-08-03T10:40:31.248Z,611.00
2023-08-03T10:41:31.277Z,607.00
2023-08-03T10:42:31.272Z,607.00
2023-08-03T10:43:31.203Z,607.00
2023-08-03T10:44:31.203Z,609.00
2023-08-03T10:45:31.215Z,610.00
2023-08-03T10:46:31.397Z,608.00
2023-08-03T10:47:31.370Z,610.00
2023-08-03T10:48:31.287Z,606.00
2023-08-03T10:49:31.232Z,608.00
2023-08-03T10:50:31.167Z,616.00
2023-08-03T10:51:31.154Z,608.00
2023-08-03T10:52:31.205Z,607.00
2023-08-03T10:53:31.155Z,607.00
2023-08-03T10:54:31.232Z,598.00
2023-08-03T10:55:31.198Z,601.00
2023-08-03T10:56:31.233Z,616.00
2023-08-03T10:57:31.266Z,614.00
2023-08-03T10:58:31.363Z,614.00
2023-08-03T10:59:31.377Z,612.00
2023-08-03T11:00:31.459Z,613.00
2023-08-03T11:01:31.601Z,614.00
2023-08-03T11:02:31.771Z,605.00
2023-08-03T11:03:31.720Z,613.00
2023-08-03T11:04:31.808Z,612.00
2023-08-03T11:05:31.750Z,613.00
2023-08-03T11:06:31.818Z,613.00
2023-08-03T11:07:31.932Z,618.00
2023-08-03T11:08:31.948Z,626.00
2023-08-03T11:09:32.035Z,623.00
2023-08-03T11:10:32.118Z,622.00
2023-08-03T11:11:32.124Z,617.00
2023-08-03T11:12:32.188Z,614.00
2023-08-03T11:13:32.270Z,618.00
2023-08-03T11:14:32.293Z,626.00
2023-08-03T11:15:32.362Z,619.00
2023-08-03T11:16:33.924Z,618.00
2023-08-03T11:17:32.613Z,625.00
2023-08-03T11:18:32.526Z,618.00
2023-08-03T11:19:32.665Z,622.00
2023-08-03T11:20:32.654Z,606.00
2023-08-03T11:21:32.700Z,612.00
2023-08-03T11:22:33.764Z,594.00
2023-08-03T11:23:32.843Z,604.00
2023-08-03T11:24:32.922Z,615.00
2023-08-03T11:25:32.989Z,606.00
2023-08-03T11:26:33.018Z,605.00
2023-08-03T11:27:33.138Z,605.00
2023-08-03T11:28:33.143Z,596.00
2023-08-03T11:29:33.174Z,596.00
2023-08-03T11:30:33.233Z,602.00
2023-08-03T11:31:33.336Z,600.00
2023-08-03T11:32:33.411Z,588.00
2023-08-03T11:33:33.444Z,592.00
2023-08-03T11:34:33.595Z,603.00
2023-08-03T11:35:33.553Z,606.00
2023-08-03T11:36:33.810Z,601.00
2023-08-03T11:37:33.737Z,601.00
2023-08-03T11:38:33.725Z,610.00
2023-08-03T11:39:33.812Z,614.00
2023-08-03T11:40:33.844Z,612.00
2023-08-03T11:41:34.050Z,608.00
2023-08-03T11:42:33.966Z,611.00
2023-08-03T11:43:34.085Z,610.00
2023-08-03T11:44:36.571Z,614.00
2023-08-03T11:45:34.381Z,624.00
2023-08-03T11:46:34.411Z,612.00
2023-08-03T11:47:34.445Z,611.00
2023-08-03T11:48:34.509Z,610.00
2023-08-03T11:49:34.622Z,618.00
2023-08-03T11:50:34.628Z,610.00
2023-08-03T11:51:34.703Z,620.00
2023-08-03T11:52:34.742Z,620.00
2023-08-03T11:53:34.840Z,619.00
2023-08-03T11:54:34.875Z,617.00
2023-08-03T11:55:34.947Z,616.00
2023-08-03T11:56:43.700Z,619.00
2023-08-03T11:57:35.984Z,620.00
2023-08-03T11:58:35.004Z,614.00
2023-08-03T11:59:34.955Z,619.00
2023-08-03T12:00:34.945Z,612.00
2023-08-03T12:01:35.008Z,619.00
2023-08-03T12:02:35.058Z,612.00
2023-08-03T12:03:35.059Z,603.00
2023-08-03T12:04:34.969Z,599.00
2023-08-03T12:07:35.118Z,609.00
2023-08-03T12:08:34.976Z,609.00
2023-08-03T12:09:34.909Z,610.00
2023-08-03T12:10:40.016Z,611.00
2023-08-03T12:12:36.315Z,609.00
2023-08-03T12:14:34.960Z,612.00
2023-08-03T12:15:34.927Z,614.00
2023-08-03T12:16:34.902Z,614.00
2023-08-03T12:17:34.886Z,617.00
2023-08-03T12:18:34.859Z,627.00
2023-08-03T12:19:34.841Z,620.00
2023-08-03T12:21:34.823Z,609.00
2023-08-03T12:22:34.813Z,608.00
2023-08-03T12:23:34.825Z,609.00
2023-08-03T12:24:34.850Z,611.00
2023-08-03T12:25:36.870Z,621.00
2023-08-03T12:26:35.382Z,627.00
2023-08-03T12:28:34.999Z,623.00
2023-08-03T12:30:36.059Z,622.00
2023-08-03T12:31:35.117Z,623.00
2023-08-03T12:32:35.079Z,614.00
2023-08-03T12:33:35.101Z,606.00
2023-08-03T12:34:34.987Z,615.00
2023-08-03T12:35:34.977Z,611.00
2023-08-03T12:36:35.026Z,609.00
2023-08-03T12:37:34.946Z,616.00
2023-08-03T12:38:34.949Z,612.00
2023-08-03T12:39:34.992Z,609.00
2023-08-03T12:40:35.069Z,604.00
2023-08-03T12:41:35.144Z,599.00
2023-08-03T12:42:35.197Z,602.00
2023-08-03T12:43:35.312Z,597.00
2023-08-03T12:44:35.294Z,597.00
2023-08-03T12:45:35.416Z,590.00
2023-08-03T12:46:35.423Z,596.00
2023-08-03T12:47:37.296Z,593.00
2023-08-03T12:48:35.698Z,592.00
2023-08-03T12:49:35.614Z,599.00
2023-08-03T12:50:35.661Z,606.00
2023-08-03T12:51:35.737Z,597.00
2023-08-03T12:52:35.790Z,594.00
2023-08-03T12:53:35.840Z,605.00
2023-08-03T12:54:35.913Z,595.00
2023-08-03T12:55:35.965Z,591.00